Time;durP1;ratioP1;P1;durP2;ratioP2;P2;SDS_P1;SDS_P2;PMS_P1;PMS_P2;Temp;Humidity;BMP_temperature;BMP_pressure;BME280_temperature;BME280_humidity;BME280_pressure;Samples;Min_cycle;Max_cycle;Signal;HPM_P1;HPM_P2
2022/09/27 00:00:20;;;;;;;8.45;1.30;;;10.10;99.90;;;;;;4804208;29;20077;-68
2022/09/27 00:02:47;;;;;;;7.25;1.20;;;10.00;99.90;;;;;;4791702;29;20492;-68
2022/09/27 00:05:12;;;;;;;3.72;1.15;;;10.10;99.90;;;;;;4789872;29;20475;-68
2022/09/27 00:07:38;;;;;;;3.97;1.40;;;9.90;99.90;;;;;;4789302;29;20078;-68
2022/09/27 00:10:04;;;;;;;6.10;1.10;;;10.30;99.90;;;;;;4804731;29;20484;-68
2022/09/27 00:12:29;;;;;;;6.47;1.10;;;9.80;99.90;;;;;;4805017;29;20049;-69
2022/09/27 00:14:55;;;;;;;7.88;1.10;;;9.70;99.90;;;;;;4788268;29;20066;-68
2022/09/27 00:17:21;;;;;;;5.05;1.38;;;9.70;99.90;;;;;;4805425;29;20034;-69
2022/09/27 00:19:47;;;;;;;6.13;1.23;;;9.70;99.90;;;;;;4808252;29;20369;-69
2022/09/27 00:22:12;;;;;;;4.78;1.10;;;9.60;99.90;;;;;;4778511;29;20446;-69
2022/09/27 00:24:38;;;;;;;4.45;0.80;;;9.60;99.90;;;;;;4791573;29;20038;-69
2022/09/27 00:27:03;;;;;;;2.28;0.80;;;9.60;99.90;;;;;;4793281;29;20055;-68
2022/09/27 00:29:29;;;;;;;5.82;1.00;;;9.50;99.90;;;;;;4805675;29;20058;-68
2022/09/27 00:31:54;;;;;;;3.15;0.90;;;9.50;99.90;;;;;;4790159;29;20047;-68
2022/09/27 00:34:22;;;;;;;5.35;1.30;;;9.40;99.90;;;;;;4791130;29;20165;-68
2022/09/27 00:36:50;;;;;;;2.97;1.13;;;9.40;99.90;;;;;;4808881;29;20477;-68
2022/09/27 00:39:17;;;;;;;2.78;0.93;;;9.40;99.90;;;;;;4790251;29;20469;-68
2022/09/27 00:41:43;;;;;;;3.92;1.17;;;9.30;99.90;;;;;;4791885;29;20055;-68
2022/09/27 00:44:24;;;;;;;5.03;0.98;;;9.40;99.90;;;;;;4791644;29;20134;-68
2022/09/27 00:47:12;;;;;;;4.53;1.13;;;9.40;99.90;;;;;;4791927;29;20544;-68
2022/09/27 00:49:39;;;;;;;3.90;0.88;;;9.40;99.90;;;;;;4807493;29;20457;-68
2022/09/27 00:52:24;;;;;;;9.30;1.35;;;9.30;99.90;;;;;;4792776;29;20058;-68
2022/09/27 00:54:56;;;;;;;3.97;0.98;;;9.30;99.90;;;;;;4794830;29;20062;-69
2022/09/27 00:57:22;;;;;;;1.55;0.90;;;9.30;99.90;;;;;;4808122;29;20051;-69
2022/09/27 01:00:06;;;;;;;2.80;0.85;;;9.40;99.90;;;;;;4791776;29;20184;-69
2022/09/27 01:02:35;;;;;;;3.75;0.90;;;9.30;99.90;;;;;;4808382;29;20073;-69
2022/09/27 01:05:02;;;;;;;3.50;1.00;;;9.30;99.90;;;;;;4807375;29;20090;-69
2022/09/27 01:07:28;;;;;;;2.45;0.88;;;9.30;99.90;;;;;;4808566;29;20126;-68
2022/09/27 01:09:53;;;;;;;4.95;1.15;;;9.30;99.90;;;;;;4807313;29;20126;-69
2022/09/27 01:12:26;;;;;;;2.22;0.80;;;9.30;99.90;;;;;;4790759;29;20557;-69
2022/09/27 01:15:16;;;;;;;5.68;0.95;;;9.30;99.90;;;;;;4806872;29;20241;-68
2022/09/27 01:17:51;;;;;;;3.28;0.80;;;9.30;99.90;;;;;;4790581;29;20164;-68
2022/09/27 01:20:43;;;;;;;3.92;0.90;;;9.30;99.90;;;;;;4806798;29;20404;-68
2022/09/27 01:23:33;;;;;;;3.83;0.85;;;9.30;99.90;;;;;;4795684;29;20500;-68
2022/09/27 01:26:25;;;;;;;1.70;0.60;;;9.30;99.90;;;;;;4805406;29;20051;-68
2022/09/27 01:28:51;;;;;;;;;;;9.40;99.90;;;;;;4789977;29;20153;-68
2022/09/27 01:31:33;;;;;;;2.45;0.80;;;9.50;99.90;;;;;;4774322;29;19963;-69
2022/09/27 01:34:41;;;;;;;3.70;0.82;;;9.40;99.90;;;;;;4805395;29;20105;-68
2022/09/27 01:37:11;;;;;;;4.22;1.00;;;9.40;99.90;;;;;;4775231;29;20093;-68
2022/09/27 01:39:58;;;;;;;3.00;0.88;;;9.40;99.90;;;;;;4786831;29;20050;-68
2022/09/27 01:42:40;;;;;;;4.43;0.88;;;9.50;99.90;;;;;;4790882;29;20070;-69
2022/09/27 01:45:22;;;;;;;3.73;0.97;;;9.40;99.90;;;;;;4799382;29;20114;-68
2022/09/27 01:47:55;;;;;;;3.83;1.42;;;9.40;99.90;;;;;;4803070;29;20716;-67
2022/09/27 01:50:28;;;;;;;4.55;0.70;;;9.40;99.90;;;;;;4789945;29;20129;-68
2022/09/27 01:53:21;;;;;;;5.45;0.90;;;9.40;99.90;;;;;;4791666;29;20050;-68
2022/09/27 01:55:50;;;;;;;4.97;1.00;;;9.40;99.90;;;;;;4806792;29;20452;-68
2022/09/27 01:58:32;;;;;;;2.30;0.90;;;9.30;99.90;;;;;;4774720;29;20047;-68
2022/09/27 02:00:59;;;;;;;2.03;0.88;;;9.30;99.90;;;;;;4807181;29;20043;-68
2022/09/27 02:03:32;;;;;;;4.30;0.80;;;9.20;99.90;;;;;;4790566;29;20388;-67
2022/09/27 02:06:13;;;;;;;2.88;1.00;;;9.30;99.90;;;;;;4807239;29;20057;-68
2022/09/27 02:08:45;;;;;;;3.15;0.60;;;9.20;99.90;;;;;;4805178;29;20059;-68
2022/09/27 02:11:12;;;;;;;3.05;0.70;;;9.20;99.90;;;;;;4789287;29;20069;-68
2022/09/27 02:14:14;;;;;;;4.38;0.90;;;9.20;99.90;;;;;;4804547;29;20130;-68
2022/09/27 02:16:49;;;;;;;2.83;0.82;;;9.20;99.90;;;;;;4789864;29;20058;-68
2022/09/27 02:19:24;;;;;;;2.85;0.77;;;9.20;99.90;;;;;;4806355;29;20473;-69
2022/09/27 02:22:09;;;;;;;4.78;0.82;;;9.20;99.90;;;;;;4807289;29;20065;-68
2022/09/27 02:24:49;;;;;;;3.10;0.73;;;9.30;99.90;;;;;;4804997;29;20134;-69
2022/09/27 02:27:23;;;;;;;2.17;0.85;;;9.30;99.90;;;;;;4806357;29;20556;-67
2022/09/27 02:32:59;;;;;;;3.30;0.90;;;9.30;99.90;;;;;;4789761;29;20054;-68
2022/09/27 02:35:31;;;;;;;3.50;0.98;;;9.30;99.90;;;;;;4790063;29;20459;-68
2022/09/27 02:37:57;;;;;;;3.63;0.68;;;9.30;99.90;;;;;;4805026;29;20047;-68
2022/09/27 02:40:28;;;;;;;3.83;0.77;;;9.30;99.90;;;;;;4789948;29;20514;-68
2022/09/27 02:42:54;;;;;;;3.05;0.60;;;9.20;99.90;;;;;;4805325;29;20043;-68
2022/09/27 02:45:20;;;;;;;2.05;0.60;;;9.30;99.90;;;;;;4790285;29;20045;-68
2022/09/27 02:48:10;;;;;;;3.20;0.57;;;9.20;99.90;;;;;;4790431;29;20042;-68
2022/09/27 02:51:11;;;;;;;3.42;0.70;;;9.20;99.90;;;;;;4804789;29;20054;-68
2022/09/27 02:54:09;;;;;;;3.92;0.90;;;9.20;99.90;;;;;;4789417;29;20184;-67
2022/09/27 02:56:45;;;;;;;5.57;0.88;;;9.20;99.90;;;;;;4809034;29;20117;-68
2022/09/27 02:59:32;;;;;;;3.97;0.95;;;9.20;99.90;;;;;;4807339;29;20542;-68
2022/09/27 03:02:11;;;;;;;2.17;0.82;;;9.20;99.90;;;;;;4806807;29;20101;-68
2022/09/27 03:04:45;;;;;;;1.50;0.63;;;9.10;99.90;;;;;;4805886;29;20065;-68
2022/09/27 03:07:13;;;;;;;2.75;0.70;;;9.10;99.90;;;;;;4790588;29;20051;-68
2022/09/27 03:09:47;;;;;;;2.20;0.80;;;9.10;99.90;;;;;;4805103;29;20054;-68
2022/09/27 03:12:19;;;;;;;1.65;0.70;;;9.20;99.90;;;;;;4789740;29;20055;-68
2022/09/27 03:14:45;;;;;;;5.22;1.00;;;9.10;99.90;;;;;;4788821;29;20069;-68
2022/09/27 03:17:11;;;;;;;3.08;0.85;;;9.20;99.90;;;;;;4789537;29;20058;-68
2022/09/27 03:19:37;;;;;;;2.92;0.68;;;9.20;99.90;;;;;;4789091;29;20104;-68
2022/09/27 03:22:02;;;;;;;1.83;0.50;;;9.10;99.90;;;;;;4805069;29;20047;-68
2022/09/27 03:24:28;;;;;;;5.05;0.80;;;9.20;99.90;;;;;;4789070;29;20057;-68
2022/09/27 03:26:53;;;;;;;0.63;0.45;;;9.20;99.90;;;;;;4789825;29;20055;-68
2022/09/27 03:29:19;;;;;;;1.65;0.68;;;9.10;99.90;;;;;;4788002;29;20069;-68
2022/09/27 03:31:45;;;;;;;0.80;0.40;;;9.10;99.90;;;;;;4805936;29;20129;-67
2022/09/27 03:34:10;;;;;;;3.22;0.68;;;9.10;99.90;;;;;;4803961;29;20063;-68
2022/09/27 03:36:36;;;;;;;4.28;0.95;;;9.10;99.90;;;;;;4804330;29;20047;-69
2022/09/27 03:39:01;;;;;;;2.60;0.82;;;9.10;99.90;;;;;;4788444;29;20047;-68
2022/09/27 03:41:27;;;;;;;11.00;0.93;;;9.10;99.90;;;;;;4788947;29;20050;-68
2022/09/27 03:43:55;;;;;;;4.07;0.60;;;9.10;99.90;;;;;;4788505;29;20039;-68
2022/09/27 03:46:21;;;;;;;2.05;0.70;;;9.10;99.90;;;;;;4803693;29;20090;-68
2022/09/27 03:48:46;;;;;;;0.82;0.70;;;9.10;99.90;;;;;;4789004;29;20488;-68
2022/09/27 03:51:12;;;;;;;4.95;1.02;;;9.10;99.90;;;;;;4787982;29;20050;-68
2022/09/27 03:53:37;;;;;;;1.95;0.55;;;9.00;99.90;;;;;;4802054;29;20051;-67
2022/09/27 03:56:03;;;;;;;2.75;0.60;;;9.00;99.90;;;;;;4788976;29;20062;-68
2022/09/27 03:58:29;;;;;;;1.02;0.50;;;9.00;99.90;;;;;;4803362;29;20074;-68
2022/09/27 04:00:54;;;;;;;3.47;0.70;;;9.00;99.90;;;;;;4788386;29;20046;-68
2022/09/27 04:03:20;;;;;;;3.67;0.70;;;8.90;99.90;;;;;;4804622;29;20043;-68
2022/09/27 04:05:45;;;;;;;2.53;0.60;;;8.90;99.90;;;;;;4788377;29;20046;-68
2022/09/27 04:08:12;;;;;;;2.97;0.88;;;8.90;99.90;;;;;;4788193;29;20051;-67
2022/09/27 04:10:38;;;;;;;2.72;0.60;;;8.90;99.90;;;;;;4805182;29;20050;-67
2022/09/27 04:13:04;;;;;;;2.35;0.70;;;8.90;99.90;;;;;;4805773;29;20073;-68
2022/09/27 04:15:29;;;;;;;1.75;0.85;;;8.80;99.90;;;;;;4803005;29;20046;-67
2022/09/27 04:17:55;;;;;;;2.50;0.70;;;8.80;99.90;;;;;;4805307;29;20446;-68
2022/09/27 04:20:21;;;;;;;2.97;0.50;;;8.80;99.90;;;;;;4787652;29;20149;-68
2022/09/27 04:22:46;;;;;;;2.20;0.60;;;8.80;99.90;;;;;;4785452;29;20113;-68
2022/09/27 04:25:12;;;;;;;2.55;0.85;;;8.80;99.90;;;;;;4788580;29;20138;-68
2022/09/27 04:27:39;;;;;;;2.72;0.75;;;8.80;99.90;;;;;;4805668;29;20088;-68
2022/09/27 04:30:06;;;;;;;1.95;0.57;;;8.70;99.90;;;;;;4788756;29;20038;-68
2022/09/27 04:32:31;;;;;;;2.42;0.60;;;8.70;99.90;;;;;;4774359;29;20054;-68
2022/09/27 04:37:44;;;;;;;3.58;0.57;;;8.70;99.90;;;;;;4784565;29;20103;-67
2022/09/27 04:40:09;;;;;;;2.72;0.75;;;8.70;99.90;;;;;;4787740;29;20063;-67
2022/09/27 04:42:35;;;;;;;1.63;0.50;;;8.70;99.90;;;;;;4787818;29;20050;-68
2022/09/27 04:45:00;;;;;;;2.15;0.57;;;8.70;99.90;;;;;;4787497;29;20051;-68
2022/09/27 04:47:26;;;;;;;1.85;0.50;;;8.70;99.90;;;;;;4805170;29;20133;-67
2022/09/27 04:49:52;;;;;;;2.10;0.63;;;8.70;99.90;;;;;;4804075;29;20384;-68
2022/09/27 04:52:18;;;;;;;2.38;0.68;;;8.70;99.90;;;;;;4787913;29;20057;-69
2022/09/27 04:54:43;;;;;;;1.42;0.50;;;8.90;99.90;;;;;;4785126;29;20502;-68
2022/09/27 04:57:09;;;;;;;2.97;0.57;;;8.90;99.90;;;;;;4803549;29;20112;-68
2022/09/27 04:59:34;;;;;;;3.58;0.65;;;8.70;99.90;;;;;;4786936;29;20051;-68
2022/09/27 05:02:00;;;;;;;4.25;0.68;;;8.80;99.90;;;;;;4802747;29;20055;-67
2022/09/27 05:04:26;;;;;;;2.10;0.60;;;8.80;99.90;;;;;;4790096;29;20087;-68
2022/09/27 05:06:52;;;;;;;1.77;0.63;;;8.80;99.90;;;;;;4806231;29;20059;-67
2022/09/27 05:09:18;;;;;;;2.13;0.47;;;8.80;99.90;;;;;;4791308;29;20050;-68
2022/09/27 05:11:43;;;;;;;3.20;0.50;;;8.70;99.90;;;;;;4791399;29;20100;-68
2022/09/27 05:14:09;;;;;;;4.75;0.50;;;8.70;99.90;;;;;;4806827;29;20504;-69
2022/09/27 05:16:37;;;;;;;4.00;0.80;;;8.70;99.90;;;;;;4805127;29;20431;-68
2022/09/27 05:19:03;;;;;;;2.20;0.60;;;8.70;99.90;;;;;;4791518;29;20196;-68
2022/09/27 05:21:30;;;;;;;2.58;0.80;;;8.60;99.90;;;;;;4791599;29;20177;-69
2022/09/27 05:23:56;;;;;;;2.95;0.68;;;8.60;99.90;;;;;;4805600;29;20396;-68
2022/09/27 05:26:22;;;;;;;0.80;0.50;;;8.60;99.90;;;;;;4791518;29;20481;-68
2022/09/27 05:28:48;;;;;;;3.58;0.75;;;8.50;99.90;;;;;;4805389;29;20050;-68
2022/09/27 05:31:13;;;;;;;1.05;0.40;;;8.50;99.90;;;;;;4787473;29;20062;-68
2022/09/27 05:33:39;;;;;;;3.28;1.02;;;8.50;99.90;;;;;;4789816;29;20437;-68
2022/09/27 05:36:06;;;;;;;1.80;0.90;;;8.50;99.90;;;;;;4793289;29;20062;-68
2022/09/27 05:38:31;;;;;;;1.55;0.50;;;8.40;99.90;;;;;;4799202;29;20461;-67
2022/09/27 05:40:57;;;;;;;1.38;0.73;;;8.40;99.90;;;;;;4797269;29;20046;-68
2022/09/27 05:43:24;;;;;;;3.55;0.90;;;8.30;99.90;;;;;;4791873;29;20053;-67
2022/09/27 05:45:51;;;;;;;1.73;0.60;;;8.30;99.90;;;;;;4800876;29;20058;-68
2022/09/27 05:48:18;;;;;;;3.33;0.85;;;8.20;99.90;;;;;;4803652;29;20063;-68
2022/09/27 05:50:44;;;;;;;3.13;1.02;;;8.20;99.90;;;;;;4804598;29;20539;-68
2022/09/27 05:53:10;;;;;;;1.55;0.98;;;8.20;99.90;;;;;;4801300;29;20055;-68
2022/09/27 05:55:36;;;;;;;5.13;1.05;;;8.10;99.90;;;;;;4796544;29;20050;-68
2022/09/27 05:58:07;;;;;;;4.88;0.90;;;8.20;99.90;;;;;;4804235;29;20423;-68
2022/09/27 06:00:34;;;;;;;2.25;0.90;;;8.20;99.90;;;;;;4801960;29;20096;-68
2022/09/27 06:03:03;;;;;;;2.47;0.80;;;8.20;99.90;;;;;;4787822;29;20426;-68
2022/09/27 06:05:34;;;;;;;4.85;0.93;;;8.20;99.90;;;;;;4802136;29;20046;-67
2022/09/27 06:08:04;;;;;;;1.70;0.80;;;8.20;99.90;;;;;;4801771;29;20055;-68
2022/09/27 06:10:31;;;;;;;3.45;0.70;;;8.30;99.90;;;;;;4800681;29;20046;-68
2022/09/27 06:13:02;;;;;;;3.33;0.85;;;8.30;99.90;;;;;;4798389;29;20087;-67
2022/09/27 06:15:28;;;;;;;4.38;1.00;;;8.30;99.90;;;;;;4788276;29;20102;-68
2022/09/27 06:17:55;;;;;;;5.10;1.30;;;8.30;99.90;;;;;;4789367;29;20087;-67
2022/09/27 06:20:20;;;;;;;2.75;0.65;;;8.30;99.90;;;;;;4805048;29;20087;-68
2022/09/27 06:23:16;;;;;;;3.85;0.85;;;8.40;99.90;;;;;;4791083;29;20097;-66
2022/09/27 06:25:41;;;;;;;4.07;0.90;;;8.30;99.90;;;;;;4802824;29;20057;-68
2022/09/27 06:28:08;;;;;;;3.25;0.80;;;8.30;99.90;;;;;;4790795;29;20054;-68
2022/09/27 06:30:41;;;;;;;2.38;0.80;;;8.30;99.90;;;;;;4807384;29;20438;-67
2022/09/27 06:33:16;;;;;;;;;;;8.50;99.90;;;;;;4806895;29;20055;-67
2022/09/27 06:35:44;;;;;;;7.47;1.38;;;8.50;99.90;;;;;;4790845;29;20004;-67
2022/09/27 06:38:15;;;;;;;5.00;0.70;;;8.70;99.90;;;;;;4790182;29;20130;-68
2022/09/27 06:40:44;;;;;;;4.15;0.90;;;8.70;99.90;;;;;;4790123;29;20059;-68
2022/09/27 06:43:11;;;;;;;2.85;0.95;;;8.90;99.90;;;;;;4804173;29;20435;-68
2022/09/27 06:45:37;;;;;;;2.90;0.85;;;9.00;99.90;;;;;;4806646;29;20116;-69
2022/09/27 06:48:04;;;;;;;4.93;1.23;;;8.90;99.90;;;;;;4766792;30;20051;-69
2022/09/27 06:50:31;;;;;;;4.95;1.00;;;9.00;99.90;;;;;;4789565;29;20066;-68
2022/09/27 06:52:58;;;;;;;4.00;0.80;;;9.00;99.90;;;;;;4806946;29;20334;-68
2022/09/27 06:55:23;;;;;;;3.40;1.00;;;9.00;99.90;;;;;;4806824;29;20059;-68
2022/09/27 07:00:41;;;;;;;3.75;1.00;;;9.10;99.90;;;;;;4785114;29;20059;-69
2022/09/27 07:03:12;;;;;;;3.97;1.10;;;9.10;99.90;;;;;;4789058;29;20094;-68
2022/09/27 07:05:38;;;;;;;3.03;0.80;;;9.10;99.90;;;;;;4806240;29;20503;-68
2022/09/27 07:08:04;;;;;;;2.67;1.20;;;9.10;99.90;;;;;;4805740;29;20105;-69
2022/09/27 07:10:32;;;;;;;3.80;1.13;;;9.10;99.90;;;;;;4803005;29;20146;-69
2022/09/27 07:13:04;;;;;;;2.70;0.80;;;9.10;99.90;;;;;;4804693;29;20046;-69
2022/09/27 07:15:31;;;;;;;4.35;1.35;;;9.20;99.90;;;;;;4804972;29;20077;-69
2022/09/27 07:17:58;;;;;;;3.45;0.98;;;9.20;99.90;;;;;;4789729;29;20058;-68
2022/09/27 07:20:24;;;;;;;2.50;0.90;;;9.20;99.90;;;;;;4805908;29;20063;-68
2022/09/27 07:22:50;;;;;;;3.65;0.85;;;9.30;99.90;;;;;;4806416;29;20537;-69
2022/09/27 07:25:16;;;;;;;5.22;1.67;;;9.30;99.90;;;;;;4803926;29;20518;-68
2022/09/27 07:27:42;;;;;;;2.63;0.77;;;9.30;99.90;;;;;;4788249;29;20051;-68
2022/09/27 07:30:09;;;;;;;4.50;1.02;;;9.40;99.90;;;;;;4789348;29;20058;-69
2022/09/27 07:32:35;;;;;;;3.80;1.00;;;9.40;99.90;;;;;;4790029;29;20043;-69
2022/09/27 07:35:05;;;;;;;4.00;0.80;;;9.40;99.90;;;;;;4789314;29;20092;-68
2022/09/27 07:37:32;;;;;;;2.95;0.90;;;9.40;99.90;;;;;;4805723;29;20043;-68
2022/09/27 07:39:59;;;;;;;1.30;0.70;;;9.50;99.90;;;;;;4805555;29;20120;-68
2022/09/27 07:42:25;;;;;;;3.33;1.00;;;9.50;99.90;;;;;;4805392;29;20526;-68
2022/09/27 07:44:50;;;;;;;3.53;0.90;;;9.60;99.90;;;;;;4789253;29;20142;-69
2022/09/27 07:47:18;;;;;;;4.22;0.80;;;9.60;99.90;;;;;;4805151;29;20055;-69
2022/09/27 07:49:43;;;;;;;2.45;0.90;;;9.70;99.90;;;;;;4789782;29;20093;-69
2022/09/27 07:52:09;;;;;;;2.67;0.80;;;9.70;99.90;;;;;;4789760;29;20441;-70
2022/09/27 07:54:36;;;;;;;2.83;1.00;;;9.90;99.90;;;;;;4804410;29;20066;-68
2022/09/27 07:57:02;;;;;;;6.85;1.15;;;10.00;99.90;;;;;;4806236;29;20086;-69
2022/09/27 07:59:28;;;;;;;1.25;0.75;;;10.10;99.90;;;;;;4774464;29;20046;-68
2022/09/27 08:01:54;;;;;;;1.77;0.70;;;10.20;99.90;;;;;;4805237;29;20046;-69
2022/09/27 08:04:20;;;;;;;6.18;0.73;;;10.40;99.90;;;;;;4789405;29;20117;-68
2022/09/27 08:06:46;;;;;;;1.55;0.65;;;10.50;99.90;;;;;;4805738;29;20057;-69
2022/09/27 08:09:12;;;;;;;4.28;0.98;;;10.70;99.90;;;;;;4789679;29;20058;-68
2022/09/27 08:11:37;;;;;;;2.33;0.80;;;10.90;99.90;;;;;;4789274;29;20051;-69
2022/09/27 08:14:03;;;;;;;2.38;0.60;;;11.10;99.90;;;;;;4805879;29;20042;-68
2022/09/27 08:16:29;;;;;;;5.32;1.10;;;11.30;99.90;;;;;;4788881;29;20051;-69
2022/09/27 08:18:55;;;;;;;2.25;0.70;;;11.50;99.90;;;;;;4804648;29;20047;-68
2022/09/27 08:21:21;;;;;;;2.85;0.77;;;11.70;99.90;;;;;;4805839;29;20054;-69
2022/09/27 08:23:46;;;;;;;1.05;0.60;;;11.80;99.90;;;;;;4787740;29;20070;-69
2022/09/27 08:26:12;;;;;;;2.30;0.60;;;12.00;99.90;;;;;;4805945;29;20051;-69
2022/09/27 08:28:37;;;;;;;1.25;0.50;;;12.00;99.90;;;;;;4805441;29;20043;-69
2022/09/27 08:31:03;;;;;;;1.90;0.50;;;12.00;99.90;;;;;;4803942;29;20043;-68
2022/09/27 08:33:28;;;;;;;2.88;0.68;;;12.00;99.90;;;;;;4806052;29;20059;-68
2022/09/27 08:35:54;;;;;;;1.33;0.60;;;11.80;99.90;;;;;;4805650;29;20174;-68
2022/09/27 08:38:21;;;;;;;1.95;0.55;;;11.80;99.90;;;;;;4818132;29;20057;-69
2022/09/27 08:40:55;;;;;;;1.73;0.60;;;11.70;99.90;;;;;;4810800;29;20055;-69
2022/09/27 08:43:32;;;;;;;2.72;0.40;;;11.70;99.90;;;;;;4808811;29;20047;-68
2022/09/27 08:46:12;;;;;;;2.17;0.60;;;11.90;99.90;;;;;;4782462;29;20047;-69
2022/09/27 08:48:38;;;;;;;3.83;0.88;;;12.00;99.90;;;;;;4801502;29;20085;-69
2022/09/27 08:51:08;;;;;;;2.20;0.47;;;12.10;99.90;;;;;;4824789;29;20050;-69
2022/09/27 08:53:47;;;;;;;1.55;0.70;;;12.20;99.90;;;;;;4816541;29;20050;-69
2022/09/27 08:56:14;;;;;;;3.05;0.60;;;12.40;99.90;;;;;;4792755;29;20061;-69
2022/09/27 08:58:57;;;;;;;2.97;0.80;;;12.50;99.90;;;;;;4791057;29;20047;-70
2022/09/27 09:01:24;;;;;;;2.28;0.60;;;12.60;99.90;;;;;;4792203;29;20051;-69
2022/09/27 09:03:56;;;;;;;1.80;0.50;;;12.70;99.90;;;;;;4777225;29;20039;-69
2022/09/27 09:06:35;;;;;;;;;;;12.90;99.90;;;;;;4809059;29;20054;-69
2022/09/27 09:09:04;;;;;;;1.70;0.60;;;13.00;99.90;;;;;;4791828;29;19924;-69
2022/09/27 09:15:24;;;;;;;5.00;0.90;;;13.30;99.90;;;;;;4794062;29;20050;-69
2022/09/27 09:18:17;;;;;;;2.63;0.70;;;13.30;99.90;;;;;;4793746;29;20061;-69
2022/09/27 09:21:09;;;;;;;2.58;0.60;;;13.10;99.90;;;;;;4808251;29;20400;-69
2022/09/27 09:23:59;;;;;;;2.73;0.60;;;12.90;99.90;;;;;;4791575;29;20134;-69
2022/09/27 09:26:25;;;;;;;3.53;0.50;;;12.80;99.90;;;;;;4791897;29;20058;-69
2022/09/27 09:29:09;;;;;;;2.22;0.50;;;12.60;99.90;;;;;;4808175;29;20051;-69
2022/09/27 09:31:51;;;;;;;1.92;0.60;;;12.50;99.90;;;;;;4790234;29;20046;-69
2022/09/27 09:34:23;;;;;;;1.23;0.37;;;12.40;99.90;;;;;;4808085;29;20050;-69
2022/09/27 09:37:21;;;;;;;3.22;0.43;;;12.30;99.90;;;;;;4808324;29;20474;-69
2022/09/27 09:39:55;;;;;;;2.67;0.77;;;12.20;99.90;;;;;;4789232;29;20116;-69
2022/09/27 09:42:42;;;;;;;1.98;0.50;;;12.20;99.90;;;;;;4791457;29;20504;-69
2022/09/27 09:45:21;;;;;;;1.05;0.38;;;12.10;99.90;;;;;;4791771;29;20043;-68
2022/09/27 09:48:05;;;;;;;0.93;0.32;;;12.20;99.90;;;;;;4806815;29;20043;-69
2022/09/27 09:50:37;;;;;;;1.85;0.55;;;12.20;99.90;;;;;;4806501;29;20062;-68
2022/09/27 09:53:23;;;;;;;2.03;0.43;;;12.20;99.90;;;;;;4791265;29;20054;-69
2022/09/27 09:55:58;;;;;;;1.65;0.50;;;12.30;99.90;;;;;;4791310;29;20489;-68
2022/09/27 09:58:30;;;;;;;2.03;0.60;;;12.40;99.90;;;;;;4803804;29;20054;-69
2022/09/27 10:01:08;;;;;;;1.88;0.68;;;12.40;99.90;;;;;;4806962;29;20047;-68
2022/09/27 10:03:33;;;;;;;1.10;0.40;;;12.40;99.90;;;;;;4807753;29;20055;-68
2022/09/27 10:05:59;;;;;;;1.67;0.50;;;12.40;99.90;;;;;;4787949;29;20054;-69
2022/09/27 10:08:53;;;;;;;1.17;0.50;;;12.50;99.90;;;;;;4813151;29;20076;-69
2022/09/27 10:11:25;;;;;;;2.30;0.50;;;12.30;99.90;;;;;;4790448;29;20104;-69
2022/09/27 10:18:25;;;;;;;2.03;0.43;;;12.70;99.90;;;;;;4806123;29;20065;-69
2022/09/27 10:21:03;;;;;;;0.45;0.35;;;12.80;99.90;;;;;;4774777;29;20054;-69
2022/09/27 10:23:28;;;;;;;2.70;0.40;;;12.90;99.90;;;;;;4787746;29;20044;-68
2022/09/27 10:26:03;;;;;;;1.48;0.50;;;12.90;99.90;;;;;;4788800;29;20472;-68
2022/09/27 10:28:42;;;;;;;1.55;0.55;;;13.00;99.90;;;;;;4795937;29;20054;-68
2022/09/27 10:31:12;;;;;;;2.45;0.45;;;13.00;99.90;;;;;;4806443;29;20130;-69
2022/09/27 10:33:50;;;;;;;0.50;0.20;;;13.00;99.90;;;;;;4790332;29;20105;-69
2022/09/27 10:36:29;;;;;;;1.20;0.60;;;13.00;99.90;;;;;;4789324;29;20043;-68
2022/09/27 10:38:57;;;;;;;2.38;0.50;;;13.30;99.90;;;;;;4803602;29;20067;-69
2022/09/27 10:41:31;;;;;;;0.40;0.30;;;13.00;99.90;;;;;;4787743;29;20042;-68
2022/09/27 10:43:57;;;;;;;2.17;0.40;;;13.10;99.90;;;;;;4805508;29;20057;-69
2022/09/27 10:46:33;;;;;;;0.52;0.30;;;13.10;99.90;;;;;;4793462;29;20054;-68
2022/09/27 10:49:09;;;;;;;0.73;0.45;;;13.10;99.90;;;;;;4806456;29;20043;-68
2022/09/27 10:51:35;;;;;;;0.50;0.30;;;13.20;99.90;;;;;;4806556;29;20546;-69
2022/09/27 10:54:01;;;;;;;0.63;0.30;;;13.40;99.90;;;;;;4805715;29;20372;-68
2022/09/27 10:56:29;;;;;;;1.13;0.50;;;13.50;99.90;;;;;;4787681;29;20055;-69
2022/09/27 10:58:56;;;;;;;1.88;0.40;;;13.80;99.90;;;;;;4805365;29;20108;-68
2022/09/27 11:01:23;;;;;;;0.98;0.30;;;14.00;99.90;;;;;;4805468;29;20122;-69
2022/09/27 11:03:58;;;;;;;0.52;0.40;;;14.10;99.90;;;;;;4804959;29;20054;-68
2022/09/27 11:06:24;;;;;;;0.57;0.20;;;14.00;99.90;;;;;;4805673;29;20054;-69
2022/09/27 11:08:51;;;;;;;1.98;0.40;;;13.90;99.90;;;;;;4790095;29;20059;-68
2022/09/27 11:11:20;;;;;;;2.50;0.35;;;13.90;99.90;;;;;;4790346;29;20063;-68
2022/09/27 11:14:03;;;;;;;1.40;0.43;;;13.80;99.90;;;;;;4806582;29;20051;-69
2022/09/27 11:17:07;;;;;;;1.58;0.40;;;13.90;99.90;;;;;;4805762;29;20059;-69
2022/09/27 11:20:00;;;;;;;1.40;0.50;;;13.90;99.90;;;;;;4789909;29;20480;-68
2022/09/27 11:22:38;;;;;;;1.15;0.40;;;13.80;99.90;;;;;;4788834;29;20058;-68
2022/09/27 11:25:32;;;;;;;0.82;0.30;;;13.60;99.90;;;;;;4804749;29;20043;-68
2022/09/27 11:28:40;;;;;;;0.82;0.38;;;13.30;99.90;;;;;;4806327;29;20050;-68
2022/09/27 11:31:47;;;;;;;0.77;0.32;;;13.00;99.90;;;;;;4790450;29;20130;-68
2022/09/27 11:34:36;;;;;;;1.65;0.32;;;12.60;99.90;;;;;;4788419;29;20051;-68
2022/09/27 11:37:11;;;;;;;1.38;0.38;;;12.40;99.90;;;;;;4789817;29;20069;-68
2022/09/27 11:39:50;;;;;;;3.30;0.77;;;12.30;99.90;;;;;;4789057;29;20123;-68
2022/09/27 11:42:49;;;;;;;0.40;0.30;;;12.30;99.90;;;;;;4806243;29;20051;-68
2022/09/27 11:45:23;;;;;;;1.55;0.30;;;12.40;99.90;;;;;;4805913;29;20543;-67
2022/09/27 11:48:15;;;;;;;0.57;0.40;;;12.50;99.90;;;;;;4804712;29;20531;-68
2022/09/27 11:51:12;;;;;;;2.00;0.57;;;12.70;99.90;;;;;;4796100;29;20153;-68
2022/09/27 11:53:44;;;;;;;0.95;0.30;;;12.70;99.90;;;;;;4800985;29;20484;-68
2022/09/27 11:56:20;;;;;;;;;;;12.90;99.90;;;;;;4790405;29;20120;-68
2022/09/27 11:59:24;;;;;;;0.63;0.30;;;13.00;99.90;;;;;;4804600;29;19917;-68
2022/09/27 12:02:04;;;;;;;2.15;0.50;;;13.20;99.90;;;;;;4773322;29;20087;-68
2022/09/27 12:04:39;;;;;;;0.80;0.47;;;13.20;99.90;;;;;;4792014;29;20050;-68
2022/09/27 12:07:30;;;;;;;0.43;0.28;;;13.20;99.90;;;;;;4791219;29;20404;-68
2022/09/27 12:10:01;;;;;;;1.30;0.30;;;13.10;99.90;;;;;;4804189;29;20086;-68
2022/09/27 12:12:34;;;;;;;1.60;0.43;;;13.00;99.90;;;;;;4776099;29;20055;-68
2022/09/27 12:15:11;;;;;;;0.98;0.20;;;13.00;99.90;;;;;;4808909;29;20065;-68
2022/09/27 12:17:44;;;;;;;1.67;0.50;;;13.00;99.90;;;;;;4808608;29;20054;-68
2022/09/27 12:20:23;;;;;;;0.65;0.30;;;13.10;99.90;;;;;;4792604;29;20058;-68
2022/09/27 12:23:03;;;;;;;1.13;0.20;;;13.20;99.90;;;;;;4809320;29;20120;-68
2022/09/27 12:25:33;;;;;;;0.57;0.30;;;13.50;99.90;;;;;;4793133;29;20069;-68
2022/09/27 12:28:13;;;;;;;0.45;0.25;;;13.60;99.90;;;;;;4807402;29;20182;-68
2022/09/27 12:30:43;;;;;;;0.52;0.20;;;13.80;99.90;;;;;;4809234;29;20365;-68
2022/09/27 12:33:31;;;;;;;1.02;0.30;;;13.80;99.90;;;;;;4792587;29;20046;-68
2022/09/27 12:36:03;;;;;;;0.95;0.22;;;13.70;99.90;;;;;;4806027;29;20051;-68
2022/09/27 12:38:40;;;;;;;2.40;0.40;;;13.80;99.90;;;;;;4791970;29;20089;-68
2022/09/27 12:41:10;;;;;;;1.60;0.30;;;13.80;99.90;;;;;;4792398;29;20062;-68
2022/09/27 12:43:44;;;;;;;1.92;0.40;;;13.80;99.90;;;;;;4789191;29;20066;-68
2022/09/27 12:46:09;;;;;;;1.25;0.40;;;13.80;99.90;;;;;;4798428;29;20053;-68
2022/09/27 12:49:09;;;;;;;1.30;0.50;;;13.70;99.90;;;;;;4807350;29;20039;-68
2022/09/27 12:51:44;;;;;;;2.92;0.50;;;13.60;99.90;;;;;;4799561;29;20127;-68
2022/09/27 12:54:50;;;;;;;0.68;0.40;;;13.50;99.90;;;;;;4798400;29;20432;-68
2022/09/27 12:57:19;;;;;;;2.72;0.60;;;13.60;99.90;;;;;;4777897;29;20043;-68
2022/09/27 12:59:57;;;;;;;2.05;0.50;;;13.60;99.90;;;;;;4777548;29;20139;-68
2022/09/27 13:02:46;;;;;;;1.40;0.50;;;13.50;99.90;;;;;;4791986;29;20046;-68
2022/09/27 13:05:58;;;;;;;1.80;0.40;;;13.40;99.90;;;;;;4804503;29;20042;-68
2022/09/27 13:09:00;;;;;;;1.93;0.33;;;13.40;99.90;;;;;;4791272;29;20082;-68
2022/09/27 13:12:17;;;;;;;1.60;0.67;;;13.60;99.90;;;;;;4814436;29;20705;-68
2022/09/27 13:19:41;;;;;;;2.78;0.50;;;13.70;99.90;;;;;;4800279;29;20034;-68
2022/09/27 13:22:56;;;;;;;1.05;0.50;;;13.70;99.90;;;;;;4805781;29;20046;-68
2022/09/27 13:25:59;;;;;;;2.45;0.60;;;13.50;99.90;;;;;;4781701;29;20131;-67
2022/09/27 13:28:31;;;;;;;1.00;0.40;;;13.30;99.90;;;;;;4800444;29;20042;-68
2022/09/27 13:31:04;;;;;;;1.57;0.53;;;13.10;99.90;;;;;;4802048;29;20496;-67
2022/09/27 13:33:42;;;;;;;2.38;0.60;;;13.10;99.90;;;;;;4807199;29;20039;-67
2022/09/27 13:36:34;;;;;;;3.25;0.70;;;13.00;99.90;;;;;;4801087;29;20062;-68
2022/09/27 13:39:00;;;;;;;3.13;0.57;;;12.90;99.90;;;;;;4806627;29;20638;-68
2022/09/27 13:41:48;;;;;;;1.83;0.30;;;13.00;99.90;;;;;;4790855;29;20137;-68
2022/09/27 13:44:32;;;;;;;1.77;0.40;;;13.00;99.90;;;;;;4806112;29;20050;-67